Pascagoula, MS

22:47 CDT le 22 octobre 2014 (GMT -0500)
Lott International | Change Station
CLOSE
Current Station
Aéroport
Location: Pascagoula,
Altitude: 16 ft
Stations météo à proximité

Alt. 16 ft 30.46 °N, 88.53 °W | Updated 54 minutes ago

Clear
Ciel dégagé
56 ° F
Paraît 56 ° F
N
4
Vent Variable Vent de NE

Aujourd'hui
Haut(e) -- | Bas -- ° F
--% Risque de précip.
Hier
Haut(e) -- | Bas -- ° F
Precip. -- pouce
7:01 AM 6:15 PM
Lune descendante, 1% visible
Pression 30.09 pouce
Visibilité 10.0 Miles terrestres
Nuages Ciel dégagé
Point de rosée 48 ° F
Humidité 75%
Précipitations 0.00 pouce
Profondeur de la couche neigeuse Non disponible.
UV 0 sur 12
Pollen 3.10 sur 12
Ozone Bon
PM2.5 Moyen
Flu Activity No Activity
METAR KPQL 230253Z AUTO 04003KT 10SM CLR 13/09 A3008 RMK AO2 SLP188 T01330089 51014 TSNO

More Conditions Fewer Conditions

Pression 30.09 pouce
Visibilité 10.0 Miles terrestres
Nuages Ciel dégagé
Point de rosée 48 ° F
Humidité 75%
Précipitations 0.00 pouce
Profondeur de la couche neigeuse Non disponible.
UV 0 sur 12
Pollen 3.10 sur 12
Ozone Bon
PM2.5 Moyen
Flu Activity No Activity
METAR KPQL 230253Z AUTO 04003KT 10SM CLR 13/09 A3008 RMK AO2 SLP188 T01330089 51014 TSNO

More Conditions Fewer Conditions

10-Day Weather Forecast

Almanac

Astronomie

Oct. 22, 2014 Lever Coucher
Temps réel 07:01 CDT 18:15 CDT
Crépuscule civil 06:36 CDT 18:39 CDT
Crépuscule nautique 06:08 CDT 19:08 CDT
Crépuscule astronomique 05:40 CDT 19:35 CDT
Lune 05:47 CDT (10/22) 17:38 CDT (10/22)
Durée de lumière visible 12h 03m
Longueur du jour
11h 14m
Tomorrow will be 1m 43s shorter.
Lune descendante, 1% of the Moon is Illuminated
Aujourd'hui
Lune descendante
Oct 23
Nouveau
Oct 30
Premier quartier
Nov 6
Pleine lune
Nov 14
Dernier quartier

Extrêmes aujourd'hui

State Highs State Lows

Community

WunderPhotos

Upload Photos

1,764,130 Photos téléchargées !

Nearby

Qualité de l'air

  Qualité de l'air Indice de la qualité de l'air Polluant
Hier Bon
PM2.5
Hier Bon
OZONE
Actuel Moyen
PM2.5
Actuel Bon
OZONE
mercredi Moyen
PM2.5
mercredi Bon
OZONE
jeudi Bon
OZONE
jeudi Bon
PM2.5
vendredi Bon
OZONE
vendredi Bon
PM2.5
samedi Bon
OZONE
samedi Bon
PM2.5

Épaisseur de neige

Station Depth Altitude
Pas de nouvelles chutes de neige

Activité sismique

Ville Distance Mag. Time & Date
No recent earthquake activity has been reported nearby.
Minimum magnitude displayed is 2.5.

Températures des eaux côtières

Lieu Température
Aucun rapport de station

Stations météo à proximité